Flight Track Log - Related Links

Times and Time Zones

All times are in EDT time to prevent confusion due to time zone crossing. See the UCA596 flight status page for this flight to view local times or setup timezone preferences in your user account.

Time Position Orientation Groundspeed Altitude Reporting Facility
EDT Latitude Longitude Course Direction KTS MPH feet Rate Location/Type
Thu 12:54:40 PM 39.0167 -77.4833 345° North 175 201 3,400  Level Potomac TRACON
Thu 12:55:46 PM 39.0667 -77.5000 345° North 187 215 5,100 1,587 Climbing Potomac TRACON
Thu 12:56:41 PM 39.1000 -77.5333 322° Northwest 174 200 6,600 1,450 Climbing Potomac TRACON
Thu 12:57:46 PM 39.1500 -77.5500 346° North 181 208 8,000 1,250 Climbing Potomac TRACON
Thu 12:58:41 PM 39.2000 -77.5833 333° Northwest 187 215 9,100 1,154 Climbing Potomac TRACON
Thu 01:00:48 PM 39.3028 -77.6272 342° North 192 221 11,500 1,200 Climbing Washington Center
Thu 01:01:46 PM 39.3569 -77.6261 North 185 213 12,800 1,412 Climbing Washington Center
Thu 01:02:47 PM 39.4094 -77.5928 26° Northeast 185 213 14,300 1,289 Climbing Washington Center
Thu 01:03:47 PM 39.4622 -77.5619 24° Northeast 191 220 15,400 908 Climbing Washington Center
Thu 01:04:46 PM 39.5211 -77.5258 25° Northeast 203 234 16,100 884 Climbing Washington Center
Thu 01:06:57 PM 39.6492 -77.4500 25° Northeast 233 268 18,200 911 Climbing New York Center
Thu 01:07:57 PM 39.7114 -77.4533 358° North 206 237 19,000 397 Climbing New York Center
Thu 01:08:58 PM 39.7719 -77.4536 360° North 223 257 19,000  Level New York Center
Thu 01:09:57 PM 39.8475 -77.4094 24° Northeast 245 282 19,000  Level New York Center
Thu 01:10:57 PM 39.9097 -77.3775 21° North 259 298 19,000  Level New York Center
Thu 01:11:57 PM 39.9761 -77.3106 38° Northeast 271 312 19,000  Level New York Center
Thu 01:12:57 PM 40.0311 -77.2561 37° Northeast 276 318 19,000  Level New York Center
Thu 01:13:57 PM 40.1081 -77.2225 18° North 264 304 19,000  Level New York Center
Thu 01:14:57 PM 40.1681 -77.1900 22° Northeast 259 298 19,000  Level New York Center
Thu 01:15:57 PM 40.2431 -77.1533 20° North 259 298 19,000  Level New York Center
Thu 01:16:57 PM 40.3056 -77.1183 23° Northeast 259 298 19,000  Level New York Center
Thu 01:17:58 PM 40.3783 -77.0814 21° North 252 290 19,000  Level New York Center
Thu 01:18:57 PM 40.4403 -77.0517 20° North 252 290 19,000  Level New York Center
Thu 01:19:57 PM 40.5175 -77.0122 21° North 260 299 19,000  Level New York Center
Thu 01:20:57 PM 40.5775 -76.9794 23° Northeast 255 293 19,000  Level New York Center
Thu 01:21:57 PM 40.6528 -76.9397 22° Northeast 255 293 19,000  Level New York Center
Thu 01:22:57 PM 40.7167 -76.9097 20° North 255 293 19,000  Level New York Center
Thu 01:23:57 PM 40.7939 -76.8672 23° Northeast 255 293 19,000 -347 Level New York Center
Thu 01:24:58 PM 40.8581 -76.8347 21° North 262 302 18,300 -800 Descending New York Center
Thu 01:25:57 PM 40.9292 -76.7914 25° Northeast 268 308 17,400 -655 Descending New York Center
Thu 01:26:57 PM 41.0000 -76.7483 25° Northeast 273 314 17,000 -200 Descending New York Center
Thu 01:27:57 PM 41.0669 -76.7047 26° Northeast 268 308 17,000  Level New York Center
Thu 01:28:57 PM 41.1333 -76.6664 24° Northeast 261 300 17,000  Level New York Center
Thu 01:29:57 PM 41.2044 -76.6175 27° Northeast 261 300 17,000  Level New York Center
Thu 01:30:57 PM 41.2711 -76.5761 25° Northeast 261 300 17,000  Level New York Center
Thu 01:31:58 PM 41.3378 -76.5350 25° Northeast 261 300 17,000  Level New York Center
Thu 01:32:57 PM 41.3981 -76.4958 26° Northeast 261 300 17,000  Level New York Center
Thu 01:33:57 PM 41.4667 -76.4547 24° Northeast 261 300 17,000 -750 Level New York Center
Thu 01:34:57 PM 41.5419 -76.4028 27° Northeast 266 306 15,500 -1,488 Descending New York Center
Thu 01:35:58 PM 41.6128 -76.3589 25° Northeast 276 318 14,000 -1,500 Descending New York Center
Thu 01:36:57 PM 41.6836 -76.3147 25° Northeast 282 325 12,500 -1,563 Descending New York Center
Thu 01:37:57 PM 41.7458 -76.2756 25° Northeast 276 318 10,900 -1,500 Descending New York Center
Thu 01:38:57 PM 41.8122 -76.2364 24° Northeast 269 310 9,500 -1,600 Descending New York Center
Thu 01:39:57 PM 41.8831 -76.1894 26° Northeast 264 304 7,700 -1,633 Descending New York Center
Thu 01:41:00 PM 41.9432 -76.1379 26° Northeast  Level FlightAware Approximate
Thu 01:41:57 PM 41.9950 -76.1064 26° Northeast 237 273 4,600  Level New York Center
Thu 01:42:57 PM 42.0306 -76.0561 46° Northeast 213 245 4,000 -300 Descending New York Center
Thu 01:43:57 PM 42.0767 -76.0011 42° Northeast 208 239 4,000 2,500 Level New York Center
Thu 01:44:57 PM 42.1164 -75.9486 44° Northeast 208 239 9,000 2,500 Climbing New York Center
Thu 01:45:57 PM 42.1542 -75.8956 46° Northeast 208 239 9,000  Level New York Center
Thu 01:46:57 PM 42.1939 -75.8425 45° Northeast 208 239 9,000  Level New York Center
Thu 01:47:57 PM 42.2094 -75.8214 45° Northeast 208 239 9,000  Level New York Center
Thu 01:49:57 PM 42.2094 -75.8214 10° North 208 239 9,000  Level New York Center
Thu 01:52:00 PM 42.2000 -75.9667 North  Level FlightAware Approximate
Thu 01:59:00 PM 42.2086 -75.9797 North  Level Estimated
Thu 02:00:00 PM 42.2086 -75.9797 North  Level Estimated
Thu 02:01:00 PM 42.2086 -75.9797 North  Level Estimated
Thu 02:02:00 PM 42.2086 -75.9797 North  Level Estimated
Thu 02:03:00 PM 42.2086 -75.9797 North  Level Estimated
Thu 02:04:00 PM 42.2086 -75.9797 North  Level Estimated
Thu 02:05:00 PM 42.2086 -75.9797 North  Level Estimated
Thu 02:06:00 PM 42.2086 -75.9797 North  Level Estimated

Login

Don't have an account? Register now (free) for customized features, flight alerts, and more!